sensor_id;sensor_type;location;lat;lon;timestamp;P1;durP1;ratioP1;P2;durP2;ratioP2
20140;SDS011;10231;47.702;9.826;2024-02-21T00:00:12;4.80;;;2.57;;
20140;SDS011;10231;47.702;9.826;2024-02-21T00:02:38;3.27;;;2.40;;
20140;SDS011;10231;47.702;9.826;2024-02-21T00:05:04;3.33;;;2.40;;
20140;SDS011;10231;47.702;9.826;2024-02-21T00:07:29;3.13;;;2.77;;
20140;SDS011;10231;47.702;9.826;2024-02-21T00:09:55;2.80;;;2.60;;
20140;SDS011;10231;47.702;9.826;2024-02-21T00:12:21;2.67;;;2.37;;
20140;SDS011;10231;47.702;9.826;2024-02-21T00:14:46;3.30;;;2.67;;
20140;SDS011;10231;47.702;9.826;2024-02-21T00:17:12;3.70;;;2.73;;
20140;SDS011;10231;47.702;9.826;2024-02-21T00:19:37;3.83;;;2.33;;
20140;SDS011;10231;47.702;9.826;2024-02-21T00:22:03;7.53;;;2.90;;
20140;SDS011;10231;47.702;9.826;2024-02-21T00:24:29;2.87;;;2.60;;
20140;SDS011;10231;47.702;9.826;2024-02-21T00:26:54;3.77;;;2.70;;
20140;SDS011;10231;47.702;9.826;2024-02-21T00:29:20;3.23;;;3.00;;
20140;SDS011;10231;47.702;9.826;2024-02-21T00:31:45;4.00;;;2.40;;
20140;SDS011;10231;47.702;9.826;2024-02-21T00:34:12;2.67;;;2.40;;
20140;SDS011;10231;47.702;9.826;2024-02-21T00:36:38;3.53;;;2.50;;
20140;SDS011;10231;47.702;9.826;2024-02-21T00:39:03;3.80;;;2.80;;
20140;SDS011;10231;47.702;9.826;2024-02-21T00:41:29;3.17;;;2.90;;
20140;SDS011;10231;47.702;9.826;2024-02-21T00:43:54;2.83;;;2.50;;
20140;SDS011;10231;47.702;9.826;2024-02-21T00:46:20;3.13;;;2.67;;
20140;SDS011;10231;47.702;9.826;2024-02-21T00:48:45;3.70;;;2.43;;
20140;SDS011;10231;47.702;9.826;2024-02-21T00:51:11;3.17;;;2.47;;
20140;SDS011;10231;47.702;9.826;2024-02-21T00:53:36;3.10;;;2.17;;
20140;SDS011;10231;47.702;9.826;2024-02-21T00:56:04;4.03;;;2.63;;
20140;SDS011;10231;47.702;9.826;2024-02-21T00:58:30;2.70;;;2.50;;
20140;SDS011;10231;47.702;9.826;2024-02-21T01:00:56;4.60;;;2.90;;
20140;SDS011;10231;47.702;9.826;2024-02-21T01:03:21;5.27;;;2.63;;
20140;SDS011;10231;47.702;9.826;2024-02-21T01:05:47;2.87;;;2.67;;
20140;SDS011;10231;47.702;9.826;2024-02-21T01:08:12;2.60;;;2.40;;
20140;SDS011;10231;47.702;9.826;2024-02-21T01:10:38;2.50;;;2.30;;
20140;SDS011;10231;47.702;9.826;2024-02-21T01:13:03;4.73;;;2.60;;
20140;SDS011;10231;47.702;9.826;2024-02-21T01:15:29;3.33;;;2.80;;
20140;SDS011;10231;47.702;9.826;2024-02-21T01:17:54;3.07;;;2.67;;
20140;SDS011;10231;47.702;9.826;2024-02-21T01:20:20;2.73;;;2.53;;
20140;SDS011;10231;47.702;9.826;2024-02-21T01:22:46;2.57;;;2.37;;
20140;SDS011;10231;47.702;9.826;2024-02-21T01:25:12;6.30;;;2.83;;
20140;SDS011;10231;47.702;9.826;2024-02-21T01:27:37;3.43;;;2.47;;
20140;SDS011;10231;47.702;9.826;2024-02-21T01:30:03;2.50;;;2.30;;
20140;SDS011;10231;47.702;9.826;2024-02-21T01:32:30;2.97;;;2.77;;
20140;SDS011;10231;47.702;9.826;2024-02-21T01:34:56;3.47;;;2.90;;
20140;SDS011;10231;47.702;9.826;2024-02-21T01:37:21;2.23;;;2.13;;
20140;SDS011;10231;47.702;9.826;2024-02-21T01:39:47;3.53;;;2.50;;
20140;SDS011;10231;47.702;9.826;2024-02-21T01:42:14;3.23;;;2.47;;
20140;SDS011;10231;47.702;9.826;2024-02-21T01:44:39;4.63;;;2.50;;
20140;SDS011;10231;47.702;9.826;2024-02-21T01:47:06;3.27;;;2.47;;
20140;SDS011;10231;47.702;9.826;2024-02-21T01:49:32;2.70;;;2.50;;
20140;SDS011;10231;47.702;9.826;2024-02-21T01:51:58;3.80;;;2.53;;
20140;SDS011;10231;47.702;9.826;2024-02-21T01:54:25;3.17;;;2.43;;
20140;SDS011;10231;47.702;9.826;2024-02-21T01:56:53;2.73;;;2.53;;
20140;SDS011;10231;47.702;9.826;2024-02-21T01:59:19;3.47;;;2.70;;
20140;SDS011;10231;47.702;9.826;2024-02-21T02:01:47;3.10;;;2.60;;
20140;SDS011;10231;47.702;9.826;2024-02-21T02:04:13;3.77;;;2.40;;
20140;SDS011;10231;47.702;9.826;2024-02-21T02:06:39;2.60;;;2.23;;
20140;SDS011;10231;47.702;9.826;2024-02-21T02:09:05;3.23;;;2.93;;
20140;SDS011;10231;47.702;9.826;2024-02-21T02:11:32;2.60;;;2.40;;
20140;SDS011;10231;47.702;9.826;2024-02-21T02:13:58;2.13;;;2.00;;
20140;SDS011;10231;47.702;9.826;2024-02-21T02:16:23;3.70;;;2.23;;
20140;SDS011;10231;47.702;9.826;2024-02-21T02:18:49;2.30;;;2.10;;
20140;SDS011;10231;47.702;9.826;2024-02-21T02:21:49;3.03;;;2.13;;
20140;SDS011;10231;47.702;9.826;2024-02-21T02:24:10;2.50;;;2.30;;
20140;SDS011;10231;47.702;9.826;2024-02-21T02:26:36;3.80;;;2.20;;
20140;SDS011;10231;47.702;9.826;2024-02-21T02:29:02;2.80;;;2.30;;
20140;SDS011;10231;47.702;9.826;2024-02-21T02:31:27;3.27;;;2.37;;
20140;SDS011;10231;47.702;9.826;2024-02-21T02:33:53;3.37;;;2.30;;
20140;SDS011;10231;47.702;9.826;2024-02-21T02:36:19;2.80;;;2.60;;
20140;SDS011;10231;47.702;9.826;2024-02-21T02:38:44;3.10;;;2.40;;
20140;SDS011;10231;47.702;9.826;2024-02-21T02:41:10;4.27;;;2.57;;
20140;SDS011;10231;47.702;9.826;2024-02-21T02:43:35;3.83;;;2.73;;
20140;SDS011;10231;47.702;9.826;2024-02-21T02:46:02;3.63;;;2.50;;
20140;SDS011;10231;47.702;9.826;2024-02-21T02:48:28;4.50;;;2.37;;
20140;SDS011;10231;47.702;9.826;2024-02-21T02:50:54;2.57;;;2.30;;
20140;SDS011;10231;47.702;9.826;2024-02-21T02:53:19;2.40;;;2.20;;
20140;SDS011;10231;47.702;9.826;2024-02-21T02:55:45;2.13;;;2.00;;
20140;SDS011;10231;47.702;9.826;2024-02-21T02:58:11;3.13;;;2.40;;
20140;SDS011;10231;47.702;9.826;2024-02-21T03:00:37;3.60;;;2.63;;
20140;SDS011;10231;47.702;9.826;2024-02-21T03:03:04;2.57;;;2.20;;
20140;SDS011;10231;47.702;9.826;2024-02-21T03:05:29;2.77;;;2.50;;
20140;SDS011;10231;47.702;9.826;2024-02-21T03:07:55;3.27;;;2.40;;
20140;SDS011;10231;47.702;9.826;2024-02-21T03:10:21;2.40;;;2.20;;
20140;SDS011;10231;47.702;9.826;2024-02-21T03:12:46;3.23;;;2.40;;
20140;SDS011;10231;47.702;9.826;2024-02-21T03:15:12;2.27;;;2.17;;
20140;SDS011;10231;47.702;9.826;2024-02-21T03:17:38;2.57;;;2.37;;
20140;SDS011;10231;47.702;9.826;2024-02-21T03:20:04;2.33;;;2.13;;
20140;SDS011;10231;47.702;9.826;2024-02-21T03:22:33;3.97;;;2.57;;
20140;SDS011;10231;47.702;9.826;2024-02-21T03:24:58;2.33;;;2.13;;
20140;SDS011;10231;47.702;9.826;2024-02-21T03:27:24;2.10;;;2.00;;
20140;SDS011;10231;47.702;9.826;2024-02-21T03:29:49;2.70;;;1.77;;
20140;SDS011;10231;47.702;9.826;2024-02-21T03:32:15;2.60;;;2.00;;
20140;SDS011;10231;47.702;9.826;2024-02-21T03:34:40;2.37;;;2.20;;
20140;SDS011;10231;47.702;9.826;2024-02-21T03:37:06;3.87;;;2.40;;
20140;SDS011;10231;47.702;9.826;2024-02-21T03:39:31;2.50;;;2.07;;
20140;SDS011;10231;47.702;9.826;2024-02-21T03:41:57;2.97;;;1.90;;
20140;SDS011;10231;47.702;9.826;2024-02-21T03:44:25;2.60;;;2.00;;
20140;SDS011;10231;47.702;9.826;2024-02-21T03:46:51;1.97;;;1.87;;
20140;SDS011;10231;47.702;9.826;2024-02-21T03:49:17;2.90;;;2.20;;
20140;SDS011;10231;47.702;9.826;2024-02-21T03:51:43;1.70;;;1.60;;
20140;SDS011;10231;47.702;9.826;2024-02-21T03:54:08;2.97;;;1.90;;
20140;SDS011;10231;47.702;9.826;2024-02-21T03:56:37;2.17;;;1.50;;
20140;SDS011;10231;47.702;9.826;2024-02-21T03:59:04;1.63;;;1.50;;
20140;SDS011;10231;47.702;9.826;2024-02-21T04:01:31;1.97;;;1.63;;
20140;SDS011;10231;47.702;9.826;2024-02-21T04:03:56;4.00;;;2.23;;
20140;SDS011;10231;47.702;9.826;2024-02-21T04:06:22;2.27;;;2.03;;
20140;SDS011;10231;47.702;9.826;2024-02-21T04:08:47;2.23;;;2.13;;
20140;SDS011;10231;47.702;9.826;2024-02-21T04:11:13;2.90;;;1.93;;
20140;SDS011;10231;47.702;9.826;2024-02-21T04:13:38;3.00;;;2.13;;
20140;SDS011;10231;47.702;9.826;2024-02-21T04:16:04;2.77;;;2.57;;
20140;SDS011;10231;47.702;9.826;2024-02-21T04:18:30;3.67;;;2.20;;
20140;SDS011;10231;47.702;9.826;2024-02-21T04:20:57;2.40;;;2.20;;
20140;SDS011;10231;47.702;9.826;2024-02-21T04:23:23;2.43;;;2.23;;
20140;SDS011;10231;47.702;9.826;2024-02-21T04:25:49;2.93;;;1.80;;
20140;SDS011;10231;47.702;9.826;2024-02-21T04:28:14;2.97;;;2.00;;
20140;SDS011;10231;47.702;9.826;2024-02-21T04:30:40;1.27;;;1.23;;
20140;SDS011;10231;47.702;9.826;2024-02-21T04:33:05;2.23;;;2.13;;
20140;SDS011;10231;47.702;9.826;2024-02-21T04:35:31;2.27;;;2.10;;
20140;SDS011;10231;47.702;9.826;2024-02-21T04:37:56;2.30;;;2.10;;
20140;SDS011;10231;47.702;9.826;2024-02-21T04:40:22;2.47;;;2.13;;
20140;SDS011;10231;47.702;9.826;2024-02-21T04:42:47;4.37;;;1.90;;
20140;SDS011;10231;47.702;9.826;2024-02-21T04:45:13;2.00;;;1.90;;
20140;SDS011;10231;47.702;9.826;2024-02-21T04:47:38;2.53;;;2.33;;
20140;SDS011;10231;47.702;9.826;2024-02-21T04:50:04;3.40;;;1.83;;
20140;SDS011;10231;47.702;9.826;2024-02-21T04:52:31;2.43;;;2.20;;
20140;SDS011;10231;47.702;9.826;2024-02-21T04:54:56;2.10;;;1.90;;
20140;SDS011;10231;47.702;9.826;2024-02-21T04:57:21;2.57;;;2.37;;
20140;SDS011;10231;47.702;9.826;2024-02-21T04:59:47;2.50;;;2.20;;
20140;SDS011;10231;47.702;9.826;2024-02-21T05:02:13;2.70;;;2.13;;
20140;SDS011;10231;47.702;9.826;2024-02-21T05:04:39;1.90;;;1.80;;
20140;SDS011;10231;47.702;9.826;2024-02-21T05:07:06;3.63;;;2.10;;
20140;SDS011;10231;47.702;9.826;2024-02-21T05:09:32;2.67;;;1.93;;
20140;SDS011;10231;47.702;9.826;2024-02-21T05:12:00;1.80;;;1.70;;
20140;SDS011;10231;47.702;9.826;2024-02-21T05:14:26;2.40;;;2.20;;
20140;SDS011;10231;47.702;9.826;2024-02-21T05:16:54;3.33;;;3.03;;
20140;SDS011;10231;47.702;9.826;2024-02-21T05:19:20;4.73;;;2.90;;
20140;SDS011;10231;47.702;9.826;2024-02-21T05:21:45;3.97;;;3.50;;
20140;SDS011;10231;47.702;9.826;2024-02-21T05:24:11;6.13;;;4.37;;
20140;SDS011;10231;47.702;9.826;2024-02-21T05:26:37;3.67;;;2.93;;
20140;SDS011;10231;47.702;9.826;2024-02-21T05:29:02;4.30;;;2.40;;
20140;SDS011;10231;47.702;9.826;2024-02-21T05:34:15;2.03;;;1.37;;
20140;SDS011;10231;47.702;9.826;2024-02-21T05:36:41;2.37;;;1.67;;
20140;SDS011;10231;47.702;9.826;2024-02-21T05:39:07;3.10;;;1.73;;
20140;SDS011;10231;47.702;9.826;2024-02-21T05:41:32;2.23;;;1.53;;
20140;SDS011;10231;47.702;9.826;2024-02-21T05:43:58;1.90;;;1.80;;
20140;SDS011;10231;47.702;9.826;2024-02-21T05:46:23;2.03;;;1.57;;
20140;SDS011;10231;47.702;9.826;2024-02-21T05:48:49;2.57;;;1.70;;
20140;SDS011;10231;47.702;9.826;2024-02-21T05:51:15;1.73;;;1.50;;
20140;SDS011;10231;47.702;9.826;2024-02-21T05:53:40;2.27;;;1.40;;
20140;SDS011;10231;47.702;9.826;2024-02-21T05:56:12;1.93;;;1.20;;
20140;SDS011;10231;47.702;9.826;2024-02-21T05:58:39;1.40;;;1.30;;
20140;SDS011;10231;47.702;9.826;2024-02-21T06:01:05;1.83;;;1.70;;
20140;SDS011;10231;47.702;9.826;2024-02-21T06:03:32;1.87;;;1.77;;
20140;SDS011;10231;47.702;9.826;2024-02-21T06:05:58;3.10;;;2.10;;
20140;SDS011;10231;47.702;9.826;2024-02-21T06:08:27;1.73;;;1.23;;
20140;SDS011;10231;47.702;9.826;2024-02-21T06:10:52;1.70;;;1.37;;
20140;SDS011;10231;47.702;9.826;2024-02-21T06:13:20;1.80;;;1.70;;
20140;SDS011;10231;47.702;9.826;2024-02-21T06:15:48;2.40;;;2.17;;
20140;SDS011;10231;47.702;9.826;2024-02-21T06:18:15;1.73;;;1.63;;
20140;SDS011;10231;47.702;9.826;2024-02-21T06:20:44;0.97;;;0.90;;
20140;SDS011;10231;47.702;9.826;2024-02-21T06:23:11;2.77;;;1.30;;
20140;SDS011;10231;47.702;9.826;2024-02-21T06:25:37;1.20;;;1.20;;
20140;SDS011;10231;47.702;9.826;2024-02-21T06:28:03;1.60;;;1.50;;
20140;SDS011;10231;47.702;9.826;2024-02-21T06:30:29;4.07;;;1.70;;
20140;SDS011;10231;47.702;9.826;2024-02-21T06:32:54;2.37;;;1.83;;
20140;SDS011;10231;47.702;9.826;2024-02-21T06:35:21;2.50;;;1.87;;
20140;SDS011;10231;47.702;9.826;2024-02-21T06:37:49;2.03;;;1.90;;
20140;SDS011;10231;47.702;9.826;2024-02-21T06:40:16;2.23;;;1.43;;
20140;SDS011;10231;47.702;9.826;2024-02-21T06:42:42;2.97;;;1.70;;
20140;SDS011;10231;47.702;9.826;2024-02-21T06:45:08;2.70;;;2.00;;
20140;SDS011;10231;47.702;9.826;2024-02-21T06:47:33;2.33;;;1.90;;
20140;SDS011;10231;47.702;9.826;2024-02-21T06:49:59;2.20;;;2.00;;
20140;SDS011;10231;47.702;9.826;2024-02-21T06:52:25;2.07;;;1.97;;
20140;SDS011;10231;47.702;9.826;2024-02-21T06:54:50;4.03;;;3.27;;
20140;SDS011;10231;47.702;9.826;2024-02-21T06:57:16;3.27;;;2.33;;
20140;SDS011;10231;47.702;9.826;2024-02-21T06:59:41;1.93;;;1.83;;
20140;SDS011;10231;47.702;9.826;2024-02-21T07:02:07;1.37;;;1.13;;
20140;SDS011;10231;47.702;9.826;2024-02-21T07:04:33;1.97;;;1.77;;
20140;SDS011;10231;47.702;9.826;2024-02-21T07:06:59;3.13;;;2.00;;
20140;SDS011;10231;47.702;9.826;2024-02-21T07:09:24;2.07;;;1.60;;
20140;SDS011;10231;47.702;9.826;2024-02-21T07:11:50;1.80;;;1.70;;
20140;SDS011;10231;47.702;9.826;2024-02-21T07:14:15;1.00;;;1.00;;
20140;SDS011;10231;47.702;9.826;2024-02-21T07:16:41;1.03;;;1.03;;
20140;SDS011;10231;47.702;9.826;2024-02-21T07:19:06;1.87;;;1.27;;
20140;SDS011;10231;47.702;9.826;2024-02-21T07:21:32;1.33;;;1.07;;
20140;SDS011;10231;47.702;9.826;2024-02-21T07:23:58;3.20;;;2.03;;
20140;SDS011;10231;47.702;9.826;2024-02-21T07:26:23;1.97;;;1.70;;
20140;SDS011;10231;47.702;9.826;2024-02-21T07:28:49;2.50;;;2.30;;
20140;SDS011;10231;47.702;9.826;2024-02-21T07:31:15;2.60;;;2.37;;
20140;SDS011;10231;47.702;9.826;2024-02-21T07:33:40;2.73;;;1.83;;
20140;SDS011;10231;47.702;9.826;2024-02-21T07:36:10;1.70;;;1.60;;
20140;SDS011;10231;47.702;9.826;2024-02-21T07:38:36;2.07;;;1.60;;
20140;SDS011;10231;47.702;9.826;2024-02-21T07:41:01;2.20;;;1.50;;
20140;SDS011;10231;47.702;9.826;2024-02-21T07:43:29;1.50;;;1.40;;
20140;SDS011;10231;47.702;9.826;2024-02-21T07:45:54;1.77;;;1.37;;
20140;SDS011;10231;47.702;9.826;2024-02-21T07:48:20;1.50;;;1.40;;
20140;SDS011;10231;47.702;9.826;2024-02-21T07:50:49;1.47;;;1.37;;
20140;SDS011;10231;47.702;9.826;2024-02-21T07:53:15;1.20;;;1.20;;
20140;SDS011;10231;47.702;9.826;2024-02-21T07:55:41;1.50;;;1.40;;
20140;SDS011;10231;47.702;9.826;2024-02-21T07:58:06;1.67;;;1.57;;
20140;SDS011;10231;47.702;9.826;2024-02-21T08:00:32;2.53;;;1.30;;
20140;SDS011;10231;47.702;9.826;2024-02-21T08:02:58;1.57;;;1.47;;
20140;SDS011;10231;47.702;9.826;2024-02-21T08:05:24;2.43;;;1.77;;
20140;SDS011;10231;47.702;9.826;2024-02-21T08:07:49;4.07;;;1.67;;
20140;SDS011;10231;47.702;9.826;2024-02-21T08:10:15;1.20;;;1.13;;
20140;SDS011;10231;47.702;9.826;2024-02-21T08:12:41;2.63;;;2.37;;
20140;SDS011;10231;47.702;9.826;2024-02-21T08:15:06;3.10;;;2.80;;
20140;SDS011;10231;47.702;9.826;2024-02-21T08:17:37;1.53;;;1.43;;
20140;SDS011;10231;47.702;9.826;2024-02-21T08:20:03;0.67;;;0.67;;
20140;SDS011;10231;47.702;9.826;2024-02-21T08:22:29;0.53;;;0.40;;
20140;SDS011;10231;47.702;9.826;2024-02-21T08:24:55;1.50;;;0.60;;
20140;SDS011;10231;47.702;9.826;2024-02-21T08:27:21;0.30;;;0.30;;
20140;SDS011;10231;47.702;9.826;2024-02-21T08:29:46;0.40;;;0.40;;
20140;SDS011;10231;47.702;9.826;2024-02-21T08:32:12;0.30;;;0.30;;
20140;SDS011;10231;47.702;9.826;2024-02-21T08:34:37;0.53;;;0.50;;
20140;SDS011;10231;47.702;9.826;2024-02-21T08:37:03;1.20;;;0.33;;
20140;SDS011;10231;47.702;9.826;2024-02-21T08:39:29;0.63;;;0.30;;
20140;SDS011;10231;47.702;9.826;2024-02-21T08:41:55;0.30;;;0.30;;
20140;SDS011;10231;47.702;9.826;2024-02-21T08:44:22;0.30;;;0.30;;
20140;SDS011;10231;47.702;9.826;2024-02-21T08:46:52;0.30;;;0.30;;
20140;SDS011;10231;47.702;9.826;2024-02-21T08:49:18;1.40;;;0.40;;
20140;SDS011;10231;47.702;9.826;2024-02-21T08:51:43;0.40;;;0.40;;
20140;SDS011;10231;47.702;9.826;2024-02-21T08:54:09;0.30;;;0.30;;
20140;SDS011;10231;47.702;9.826;2024-02-21T08:56:34;0.47;;;0.40;;
20140;SDS011;10231;47.702;9.826;2024-02-21T08:59:00;0.33;;;0.33;;
20140;SDS011;10231;47.702;9.826;2024-02-21T09:01:26;0.40;;;0.40;;
20140;SDS011;10231;47.702;9.826;2024-02-21T09:03:52;0.60;;;0.40;;
20140;SDS011;10231;47.702;9.826;2024-02-21T09:06:18;0.40;;;0.40;;
20140;SDS011;10231;47.702;9.826;2024-02-21T09:08:45;0.40;;;0.40;;
20140;SDS011;10231;47.702;9.826;2024-02-21T09:11:11;0.70;;;0.50;;
20140;SDS011;10231;47.702;9.826;2024-02-21T09:13:36;1.43;;;0.33;;
20140;SDS011;10231;47.702;9.826;2024-02-21T09:16:02;0.73;;;0.33;;
20140;SDS011;10231;47.702;9.826;2024-02-21T09:18:28;0.40;;;0.40;;
20140;SDS011;10231;47.702;9.826;2024-02-21T09:20:54;0.30;;;0.30;;
20140;SDS011;10231;47.702;9.826;2024-02-21T09:23:20;0.57;;;0.50;;
20140;SDS011;10231;47.702;9.826;2024-02-21T09:25:48;0.30;;;0.20;;
20140;SDS011;10231;47.702;9.826;2024-02-21T09:28:14;0.60;;;0.40;;
20140;SDS011;10231;47.702;9.826;2024-02-21T09:30:39;0.97;;;0.40;;
20140;SDS011;10231;47.702;9.826;2024-02-21T09:33:05;2.10;;;0.50;;
20140;SDS011;10231;47.702;9.826;2024-02-21T09:35:30;1.40;;;0.60;;
20140;SDS011;10231;47.702;9.826;2024-02-21T09:37:58;0.60;;;0.60;;
20140;SDS011;10231;47.702;9.826;2024-02-21T09:40:24;1.43;;;0.60;;
20140;SDS011;10231;47.702;9.826;2024-02-21T09:42:50;0.37;;;0.37;;
20140;SDS011;10231;47.702;9.826;2024-02-21T09:45:28;0.73;;;0.30;;
20140;SDS011;10231;47.702;9.826;2024-02-21T09:48:05;0.87;;;0.50;;
20140;SDS011;10231;47.702;9.826;2024-02-21T09:50:46;0.73;;;0.40;;
20140;SDS011;10231;47.702;9.826;2024-02-21T09:53:14;0.50;;;0.50;;
20140;SDS011;10231;47.702;9.826;2024-02-21T09:55:40;0.60;;;0.50;;
20140;SDS011;10231;47.702;9.826;2024-02-21T09:58:08;0.40;;;0.40;;
20140;SDS011;10231;47.702;9.826;2024-02-21T10:00:37;0.40;;;0.40;;
20140;SDS011;10231;47.702;9.826;2024-02-21T10:03:03;0.83;;;0.50;;
20140;SDS011;10231;47.702;9.826;2024-02-21T10:05:35;0.50;;;0.50;;
20140;SDS011;10231;47.702;9.826;2024-02-21T10:08:02;1.27;;;0.50;;
20140;SDS011;10231;47.702;9.826;2024-02-21T10:10:28;1.10;;;0.83;;
20140;SDS011;10231;47.702;9.826;2024-02-21T10:12:55;3.20;;;0.50;;
20140;SDS011;10231;47.702;9.826;2024-02-21T10:15:22;0.83;;;0.80;;
20140;SDS011;10231;47.702;9.826;2024-02-21T10:17:50;0.77;;;0.70;;
20140;SDS011;10231;47.702;9.826;2024-02-21T10:20:25;1.33;;;0.60;;
20140;SDS011;10231;47.702;9.826;2024-02-21T10:23:00;1.23;;;0.80;;
20140;SDS011;10231;47.702;9.826;2024-02-21T10:25:27;0.97;;;0.60;;
20140;SDS011;10231;47.702;9.826;2024-02-21T10:27:53;1.40;;;0.67;;
20140;SDS011;10231;47.702;9.826;2024-02-21T10:30:19;0.60;;;0.60;;
20140;SDS011;10231;47.702;9.826;2024-02-21T10:32:52;0.70;;;0.70;;
20140;SDS011;10231;47.702;9.826;2024-02-21T10:35:27;1.60;;;0.60;;
20140;SDS011;10231;47.702;9.826;2024-02-21T10:37:56;1.03;;;1.03;;
20140;SDS011;10231;47.702;9.826;2024-02-21T10:40:25;0.60;;;0.60;;
20140;SDS011;10231;47.702;9.826;2024-02-21T10:42:59;0.60;;;0.60;;
20140;SDS011;10231;47.702;9.826;2024-02-21T10:45:28;0.50;;;0.50;;
20140;SDS011;10231;47.702;9.826;2024-02-21T10:50:56;0.57;;;0.57;;
20140;SDS011;10231;47.702;9.826;2024-02-21T10:58:50;0.70;;;0.70;;
20140;SDS011;10231;47.702;9.826;2024-02-21T11:01:16;0.60;;;0.60;;
20140;SDS011;10231;47.702;9.826;2024-02-21T11:03:43;0.97;;;0.80;;
20140;SDS011;10231;47.702;9.826;2024-02-21T11:06:11;2.57;;;0.77;;
20140;SDS011;10231;47.702;9.826;2024-02-21T11:08:38;1.97;;;0.90;;
20140;SDS011;10231;47.702;9.826;2024-02-21T11:11:04;0.67;;;0.67;;
20140;SDS011;10231;47.702;9.826;2024-02-21T11:13:36;1.70;;;1.07;;
20140;SDS011;10231;47.702;9.826;2024-02-21T11:16:08;0.83;;;0.83;;
20140;SDS011;10231;47.702;9.826;2024-02-21T11:18:38;2.50;;;1.30;;
20140;SDS011;10231;47.702;9.826;2024-02-21T11:21:04;0.70;;;0.70;;
20140;SDS011;10231;47.702;9.826;2024-02-21T11:23:30;2.33;;;1.03;;
20140;SDS011;10231;47.702;9.826;2024-02-21T11:26:08;2.57;;;0.80;;
20140;SDS011;10231;47.702;9.826;2024-02-21T11:28:35;0.70;;;0.60;;
20140;SDS011;10231;47.702;9.826;2024-02-21T11:31:09;1.37;;;0.70;;
20140;SDS011;10231;47.702;9.826;2024-02-21T11:33:42;0.80;;;0.80;;
20140;SDS011;10231;47.702;9.826;2024-02-21T11:36:09;1.73;;;1.23;;
20140;SDS011;10231;47.702;9.826;2024-02-21T11:38:34;0.93;;;0.87;;
20140;SDS011;10231;47.702;9.826;2024-02-21T11:41:00;1.90;;;0.90;;
20140;SDS011;10231;47.702;9.826;2024-02-21T11:43:26;0.93;;;0.60;;
20140;SDS011;10231;47.702;9.826;2024-02-21T11:45:58;1.27;;;1.17;;
20140;SDS011;10231;47.702;9.826;2024-02-21T11:48:25;0.80;;;0.80;;
20140;SDS011;10231;47.702;9.826;2024-02-21T11:50:54;0.70;;;0.70;;
20140;SDS011;10231;47.702;9.826;2024-02-21T11:53:21;0.70;;;0.70;;
20140;SDS011;10231;47.702;9.826;2024-02-21T11:55:47;2.07;;;0.80;;
20140;SDS011;10231;47.702;9.826;2024-02-21T11:58:12;0.60;;;0.60;;
20140;SDS011;10231;47.702;9.826;2024-02-21T12:00:38;0.80;;;0.80;;
20140;SDS011;10231;47.702;9.826;2024-02-21T12:03:05;1.23;;;0.80;;
20140;SDS011;10231;47.702;9.826;2024-02-21T12:05:30;1.23;;;0.80;;
20140;SDS011;10231;47.702;9.826;2024-02-21T12:07:57;0.60;;;0.60;;
20140;SDS011;10231;47.702;9.826;2024-02-21T12:10:23;2.53;;;0.90;;
20140;SDS011;10231;47.702;9.826;2024-02-21T12:12:49;1.03;;;0.77;;
20140;SDS011;10231;47.702;9.826;2024-02-21T12:15:17;1.90;;;0.80;;
20140;SDS011;10231;47.702;9.826;2024-02-21T12:17:43;2.10;;;0.80;;
20140;SDS011;10231;47.702;9.826;2024-02-21T12:20:10;1.17;;;1.07;;
20140;SDS011;10231;47.702;9.826;2024-02-21T12:22:39;3.00;;;0.90;;
20140;SDS011;10231;47.702;9.826;2024-02-21T12:25:16;2.37;;;0.90;;
20140;SDS011;10231;47.702;9.826;2024-02-21T12:27:45;0.80;;;0.80;;
20140;SDS011;10231;47.702;9.826;2024-02-21T12:30:11;1.00;;;1.00;;
20140;SDS011;10231;47.702;9.826;2024-02-21T12:32:37;0.97;;;0.93;;
20140;SDS011;10231;47.702;9.826;2024-02-21T12:35:02;1.37;;;1.10;;
20140;SDS011;10231;47.702;9.826;2024-02-21T12:37:28;0.93;;;0.90;;
20140;SDS011;10231;47.702;9.826;2024-02-21T12:39:54;1.67;;;1.00;;
20140;SDS011;10231;47.702;9.826;2024-02-21T12:42:20;1.17;;;0.73;;
20140;SDS011;10231;47.702;9.826;2024-02-21T12:44:46;0.93;;;0.80;;
20140;SDS011;10231;47.702;9.826;2024-02-21T12:47:11;0.70;;;0.70;;
20140;SDS011;10231;47.702;9.826;2024-02-21T12:49:37;1.40;;;1.10;;
20140;SDS011;10231;47.702;9.826;2024-02-21T12:52:03;1.20;;;1.10;;
20140;SDS011;10231;47.702;9.826;2024-02-21T12:54:28;1.37;;;0.80;;
20140;SDS011;10231;47.702;9.826;2024-02-21T12:56:55;0.97;;;0.60;;
20140;SDS011;10231;47.702;9.826;2024-02-21T12:59:21;1.03;;;0.97;;
20140;SDS011;10231;47.702;9.826;2024-02-21T13:01:47;1.20;;;0.90;;
20140;SDS011;10231;47.702;9.826;2024-02-21T13:04:12;1.20;;;0.70;;
20140;SDS011;10231;47.702;9.826;2024-02-21T13:06:38;1.00;;;1.00;;
20140;SDS011;10231;47.702;9.826;2024-02-21T13:09:03;1.17;;;0.70;;
20140;SDS011;10231;47.702;9.826;2024-02-21T13:11:33;1.07;;;0.60;;
20140;SDS011;10231;47.702;9.826;2024-02-21T13:13:59;1.83;;;0.73;;
20140;SDS011;10231;47.702;9.826;2024-02-21T13:16:25;2.27;;;0.70;;
20140;SDS011;10231;47.702;9.826;2024-02-21T13:18:51;2.10;;;1.17;;
20140;SDS011;10231;47.702;9.826;2024-02-21T13:21:17;5.30;;;0.73;;
20140;SDS011;10231;47.702;9.826;2024-02-21T13:23:42;1.00;;;0.90;;
20140;SDS011;10231;47.702;9.826;2024-02-21T13:26:09;1.23;;;0.70;;
20140;SDS011;10231;47.702;9.826;2024-02-21T13:28:35;1.07;;;0.97;;
20140;SDS011;10231;47.702;9.826;2024-02-21T13:31:00;0.80;;;0.80;;
20140;SDS011;10231;47.702;9.826;2024-02-21T13:33:27;1.50;;;1.00;;
20140;SDS011;10231;47.702;9.826;2024-02-21T13:35:53;1.20;;;1.10;;
20140;SDS011;10231;47.702;9.826;2024-02-21T13:38:19;0.77;;;0.77;;
20140;SDS011;10231;47.702;9.826;2024-02-21T13:40:45;1.00;;;0.80;;
20140;SDS011;10231;47.702;9.826;2024-02-21T13:43:10;1.37;;;0.90;;
20140;SDS011;10231;47.702;9.826;2024-02-21T13:45:36;0.80;;;0.80;;
20140;SDS011;10231;47.702;9.826;2024-02-21T13:48:02;2.27;;;1.10;;
20140;SDS011;10231;47.702;9.826;2024-02-21T13:50:31;3.67;;;1.10;;
20140;SDS011;10231;47.702;9.826;2024-02-21T13:52:57;1.90;;;1.10;;
20140;SDS011;10231;47.702;9.826;2024-02-21T13:55:23;1.60;;;0.90;;
20140;SDS011;10231;47.702;9.826;2024-02-21T13:57:51;0.97;;;0.97;;
20140;SDS011;10231;47.702;9.826;2024-02-21T14:00:17;2.17;;;0.70;;
20140;SDS011;10231;47.702;9.826;2024-02-21T14:02:43;1.70;;;1.00;;
20140;SDS011;10231;47.702;9.826;2024-02-21T14:05:09;0.80;;;0.80;;
20140;SDS011;10231;47.702;9.826;2024-02-21T14:07:35;2.83;;;1.00;;
20140;SDS011;10231;47.702;9.826;2024-02-21T14:10:00;0.97;;;0.87;;
20140;SDS011;10231;47.702;9.826;2024-02-21T14:12:26;1.17;;;0.77;;
20140;SDS011;10231;47.702;9.826;2024-02-21T14:14:51;0.83;;;0.80;;
20140;SDS011;10231;47.702;9.826;2024-02-21T14:17:17;1.03;;;0.90;;
20140;SDS011;10231;47.702;9.826;2024-02-21T14:19:43;1.13;;;1.10;;
20140;SDS011;10231;47.702;9.826;2024-02-21T14:22:09;0.83;;;0.83;;
20140;SDS011;10231;47.702;9.826;2024-02-21T14:24:36;0.97;;;0.70;;
20140;SDS011;10231;47.702;9.826;2024-02-21T14:27:01;4.10;;;2.20;;
20140;SDS011;10231;47.702;9.826;2024-02-21T14:29:28;3.03;;;1.47;;
20140;SDS011;10231;47.702;9.826;2024-02-21T14:31:54;1.83;;;1.40;;
20140;SDS011;10231;47.702;9.826;2024-02-21T14:34:19;1.20;;;1.10;;
20140;SDS011;10231;47.702;9.826;2024-02-21T14:36:45;1.77;;;1.13;;
20140;SDS011;10231;47.702;9.826;2024-02-21T14:39:10;2.20;;;0.90;;
20140;SDS011;10231;47.702;9.826;2024-02-21T14:41:36;2.13;;;0.90;;
20140;SDS011;10231;47.702;9.826;2024-02-21T14:44:02;1.30;;;0.90;;
20140;SDS011;10231;47.702;9.826;2024-02-21T14:46:28;1.77;;;0.93;;
20140;SDS011;10231;47.702;9.826;2024-02-21T14:48:54;3.07;;;0.90;;
20140;SDS011;10231;47.702;9.826;2024-02-21T14:51:20;1.13;;;1.13;;
20140;SDS011;10231;47.702;9.826;2024-02-21T14:53:46;1.37;;;1.00;;